DAOR/CBH METAR and TAF weather

Enter ICAO airport designator
Station Type Date Time Source
DAOR METAR 2018/09/21 23:00 UTC NOAA

DAOR 212300Z 06008KT CAVOK 25/05 Q1021


Station Type Date Time Source
DAOR Decoded METAR 2018/09/21 23:00 UTC NOAA

Bechar, Algeria (DAOR) 31-37N 002-14W 773M
Sep 21, 2018 - 07:00 PM EDT / 2018.09.21 2300 UTC
Wind: from the ENE (060 degrees) at 9 MPH (8 KT):0
Visibility: greater than 7 mile(s):0
Temperature: 77 F (25 C)
Dew Point: 41 F (5 C)
Relative Humidity: 27%
Pressure (altimeter): 30.15 in. Hg (1021 hPa)
ob: DAOR 212300Z 06008KT CAVOK 25/05 Q1021
cycle: 23

Station Type Date Time Source
DAOR TAF 2017/11/09 18:03 UTC NOAA

TAF DAOR 091700Z 0918/1009 35010KT 6000 FEW033 SCT100
TEMPO 0918/0924 3000 BLSA PROB40
TEMPO 0918/0924 35020G35KT 2000 -TSRA FEW030CB


Example: see airport list